CES5111 ZSSS-ZBAA
Flight info
| Callsign | CES5111 |
|---|---|
| Flight time | 1h 46m |
| Altitude | 32100 |
| Route | PIK71D PIKAS G330 PIMOL A593 DALIM W157 AVBOX AVBOX8Y |
| Aircraft | A306/H-SDE3FGHIRWY/LB1 |
Departure
| Time | 2026-05-07 13:44 |
|---|---|
| Airport | Shanghai Hongqiao International Airport (ZSSS) |
Arrival
| Time | 2026-05-07 15:31 |
|---|---|
| Airport | Beijing Capital International Airport (ZBAA) |
| Time | Latitude | Longitude | Altitude | Speed | Heading |
|---|---|---|---|---|---|
| 2026-05-07 13:19 | 31.19485 | 121.32780 | 25 ft | 0 kts | 192° |
| 2026-05-07 13:35 | 31.19492 | 121.32782 | 25 ft | 3 kts | 193° |
| 2026-05-07 13:35 | 31.19505 | 121.32785 | 28 ft | 3 kts | 193° |
| 2026-05-07 13:35 | 31.19532 | 121.32793 | 27 ft | 3 kts | 192° |
| 2026-05-07 13:36 | 31.19548 | 121.32796 | 30 ft | 2 kts | 175° |
| 2026-05-07 13:36 | 31.19560 | 121.32792 | 29 ft | 2 kts | 148° |
| 2026-05-07 13:36 | 31.19573 | 121.32781 | 31 ft | 1 kts | 126° |
| 2026-05-07 13:36 | 31.19576 | 121.32773 | 31 ft | 1 kts | 91° |
| 2026-05-07 13:37 | 31.19576 | 121.32763 | 30 ft | 1 kts | 88° |
| 2026-05-07 13:37 | 31.19576 | 121.32754 | 29 ft | 1 kts | 88° |
| 2026-05-07 13:37 | 31.19576 | 121.32752 | 29 ft | 0 kts | 88° |
| 2026-05-07 13:39 | 31.19576 | 121.32755 | 29 ft | 2 kts | 88° |
| 2026-05-07 13:39 | 31.19578 | 121.32802 | 30 ft | 9 kts | 87° |
| 2026-05-07 13:39 | 31.19582 | 121.32902 | 30 ft | 15 kts | 87° |
| 2026-05-07 13:39 | 31.19587 | 121.33035 | 25 ft | 15 kts | 87° |
| 2026-05-07 13:40 | 31.19581 | 121.33067 | 29 ft | 8 kts | 124° |
| 2026-05-07 13:40 | 31.19168 | 121.33088 | 28 ft | 26 kts | 177° |
| 2026-05-07 13:41 | 31.18989 | 121.33100 | 29 ft | 25 kts | 176° |
| 2026-05-07 13:41 | 31.18820 | 121.33109 | 30 ft | 24 kts | 176° |
| 2026-05-07 13:41 | 31.18660 | 121.33117 | 28 ft | 22 kts | 179° |
| 2026-05-07 13:41 | 31.18507 | 121.33125 | 28 ft | 22 kts | 177° |
| 2026-05-07 13:42 | 31.18382 | 121.33134 | 28 ft | 15 kts | 174° |
| 2026-05-07 13:42 | 31.18341 | 121.33182 | 29 ft | 9 kts | 94° |
| 2026-05-07 13:42 | 31.18348 | 121.33283 | 25 ft | 16 kts | 85° |
| 2026-05-07 13:42 | 31.18354 | 121.33425 | 25 ft | 18 kts | 87° |
| 2026-05-07 13:43 | 31.18358 | 121.33566 | 30 ft | 17 kts | 88° |
| 2026-05-07 13:43 | 31.18366 | 121.33700 | 24 ft | 13 kts | 68° |
| 2026-05-07 13:43 | 31.18443 | 121.33702 | 26 ft | 15 kts | 355° |
| 2026-05-07 13:43 | 31.18573 | 121.33696 | 25 ft | 25 kts | 357° |
| 2026-05-07 13:44 | 31.18945 | 121.33676 | 27 ft | 88 kts | 357° |
| 2026-05-07 13:44 | 31.19784 | 121.33630 | 29 ft | 151 kts | 358° |
| 2026-05-07 13:44 | 31.20973 | 121.33581 | 471 ft | 174 kts | 357° |
| 2026-05-07 13:44 | 31.22178 | 121.33522 | 1372 ft | 181 kts | 352° |
| 2026-05-07 13:45 | 31.23558 | 121.33369 | 1755 ft | 216 kts | 353° |
| 2026-05-07 13:45 | 31.25153 | 121.33176 | 2251 ft | 243 kts | 353° |
| 2026-05-07 13:45 | 31.26311 | 121.33043 | 2814 ft | 251 kts | 352° |
| 2026-05-07 13:45 | 31.28553 | 121.32373 | 4122 ft | 255 kts | 329° |
| 2026-05-07 13:46 | 31.29507 | 121.31523 | 4825 ft | 256 kts | 316° |
| 2026-05-07 13:46 | 31.30744 | 121.30006 | 5781 ft | 262 kts | 311° |
| 2026-05-07 13:46 | 31.32375 | 121.27888 | 7156 ft | 265 kts | 311° |
| 2026-05-07 13:46 | 31.33214 | 121.26799 | 7867 ft | 267 kts | 311° |
| 2026-05-07 13:47 | 31.34481 | 121.25175 | 8866 ft | 273 kts | 311° |
| 2026-05-07 13:47 | 31.35769 | 121.23524 | 9887 ft | 276 kts | 311° |
| 2026-05-07 13:47 | 31.37066 | 121.21857 | 10824 ft | 279 kts | 310° |
| 2026-05-07 13:47 | 31.38374 | 121.20166 | 11704 ft | 282 kts | 309° |
| 2026-05-07 13:48 | 31.39714 | 121.18464 | 12597 ft | 285 kts | 309° |
| 2026-05-07 13:48 | 31.41060 | 121.16732 | 13386 ft | 293 kts | 308° |
| 2026-05-07 13:48 | 31.42454 | 121.14935 | 13751 ft | 311 kts | 308° |
| 2026-05-07 13:48 | 31.43961 | 121.13013 | 14038 ft | 330 kts | 310° |
| 2026-05-07 13:49 | 31.45816 | 121.11277 | 14315 ft | 355 kts | 325° |
| 2026-05-07 13:49 | 31.48080 | 121.09948 | 14589 ft | 373 kts | 331° |
| 2026-05-07 13:49 | 31.50483 | 121.08688 | 14946 ft | 384 kts | 332° |
| 2026-05-07 13:49 | 31.52943 | 121.07409 | 15445 ft | 389 kts | 332° |
| 2026-05-07 13:50 | 31.55428 | 121.06108 | 15994 ft | 393 kts | 331° |
| 2026-05-07 13:50 | 31.57935 | 121.04787 | 16535 ft | 397 kts | 331° |
| 2026-05-07 13:50 | 31.60460 | 121.03450 | 17117 ft | 400 kts | 331° |
| 2026-05-07 13:50 | 31.63004 | 121.02099 | 17681 ft | 403 kts | 331° |
| 2026-05-07 13:51 | 31.65567 | 121.00736 | 18197 ft | 406 kts | 331° |
| 2026-05-07 13:51 | 31.68149 | 120.99361 | 18634 ft | 409 kts | 331° |
| 2026-05-07 13:51 | 31.70746 | 120.97978 | 19115 ft | 410 kts | 331° |
| 2026-05-07 13:51 | 31.73354 | 120.96588 | 19556 ft | 413 kts | 331° |
| 2026-05-07 13:52 | 31.75975 | 120.95189 | 20018 ft | 414 kts | 330° |
| 2026-05-07 13:52 | 31.78600 | 120.93786 | 20473 ft | 415 kts | 330° |
| 2026-05-07 13:52 | 31.81235 | 120.92377 | 20845 ft | 418 kts | 330° |
| 2026-05-07 13:52 | 31.83896 | 120.90954 | 21231 ft | 421 kts | 330° |
| 2026-05-07 13:53 | 31.86573 | 120.89521 | 21594 ft | 424 kts | 330° |
| 2026-05-07 13:53 | 31.89266 | 120.88078 | 21977 ft | 426 kts | 330° |
| 2026-05-07 13:53 | 31.91975 | 120.86627 | 22341 ft | 429 kts | 330° |
| 2026-05-07 13:53 | 31.94701 | 120.85165 | 22686 ft | 432 kts | 330° |
| 2026-05-07 13:54 | 31.97444 | 120.83692 | 23010 ft | 436 kts | 330° |
| 2026-05-07 13:54 | 32.00218 | 120.82200 | 23284 ft | 440 kts | 330° |
| 2026-05-07 13:54 | 32.03010 | 120.80698 | 23619 ft | 442 kts | 330° |
| 2026-05-07 13:54 | 32.05809 | 120.79192 | 23932 ft | 444 kts | 330° |
| 2026-05-07 13:55 | 32.08591 | 120.77614 | 24217 ft | 443 kts | 327° |
| 2026-05-07 13:55 | 32.11167 | 120.75640 | 24517 ft | 439 kts | 317° |
| 2026-05-07 13:55 | 32.13382 | 120.73203 | 24833 ft | 435 kts | 308° |
| 2026-05-07 13:55 | 32.15185 | 120.70362 | 25136 ft | 432 kts | 298° |
| 2026-05-07 13:56 | 32.16528 | 120.67207 | 25417 ft | 430 kts | 289° |
| 2026-05-07 13:56 | 32.17381 | 120.63838 | 25709 ft | 428 kts | 280° |
| 2026-05-07 13:56 | 32.17844 | 120.60364 | 26005 ft | 429 kts | 276° |
| 2026-05-07 13:56 | 32.18180 | 120.56860 | 26288 ft | 430 kts | 275° |
| 2026-05-07 13:57 | 32.18457 | 120.53336 | 26558 ft | 432 kts | 274° |
| 2026-05-07 13:57 | 32.18716 | 120.49797 | 26821 ft | 433 kts | 274° |
| 2026-05-07 13:57 | 32.18976 | 120.46247 | 27073 ft | 435 kts | 274° |
| 2026-05-07 13:57 | 32.19246 | 120.42685 | 27315 ft | 436 kts | 274° |
| 2026-05-07 13:58 | 32.19525 | 120.39112 | 27572 ft | 438 kts | 274° |
| 2026-05-07 13:58 | 32.19811 | 120.35548 | 27901 ft | 437 kts | 274° |
| 2026-05-07 13:58 | 32.20098 | 120.32015 | 28128 ft | 438 kts | 274° |
| 2026-05-07 13:58 | 32.20391 | 120.28436 | 28417 ft | 438 kts | 274° |
| 2026-05-07 13:59 | 32.20683 | 120.24874 | 28768 ft | 436 kts | 274° |
| 2026-05-07 13:59 | 32.20975 | 120.21316 | 29121 ft | 435 kts | 274° |
| 2026-05-07 13:59 | 32.21266 | 120.17767 | 29457 ft | 434 kts | 274° |
| 2026-05-07 13:59 | 32.21555 | 120.14226 | 29802 ft | 432 kts | 274° |
| 2026-05-07 14:00 | 32.21842 | 120.10697 | 30138 ft | 431 kts | 274° |
| 2026-05-07 14:00 | 32.22127 | 120.07169 | 30424 ft | 430 kts | 274° |
| 2026-05-07 14:00 | 32.22410 | 120.03657 | 30724 ft | 429 kts | 274° |
| 2026-05-07 14:00 | 32.22689 | 120.00174 | 31015 ft | 428 kts | 274° |
| 2026-05-07 14:01 | 32.22968 | 119.96678 | 31325 ft | 427 kts | 274° |
| 2026-05-07 14:01 | 32.23246 | 119.93191 | 31642 ft | 426 kts | 274° |
| 2026-05-07 14:01 | 32.23522 | 119.89712 | 31932 ft | 425 kts | 273° |
| 2026-05-07 14:02 | 32.24172 | 119.82871 | 32023 ft | 404 kts | 278° |
| 2026-05-07 14:02 | 32.24923 | 119.79729 | 32032 ft | 391 kts | 287° |
| 2026-05-07 14:02 | 32.26079 | 119.76824 | 32039 ft | 392 kts | 295° |
| 2026-05-07 14:03 | 32.29644 | 119.71894 | 32044 ft | 406 kts | 314° |
| 2026-05-07 14:03 | 32.34172 | 119.67824 | 32059 ft | 410 kts | 318° |
| 2026-05-07 14:04 | 32.38817 | 119.63946 | 32057 ft | 411 kts | 318° |
| 2026-05-07 14:04 | 32.43477 | 119.60039 | 32062 ft | 410 kts | 318° |
| 2026-05-07 14:05 | 32.48110 | 119.56092 | 32068 ft | 410 kts | 317° |
| 2026-05-07 14:05 | 32.52737 | 119.52099 | 32072 ft | 410 kts | 317° |
| 2026-05-07 14:06 | 32.57314 | 119.48136 | 32081 ft | 408 kts | 317° |
| 2026-05-07 14:06 | 32.61891 | 119.44171 | 32084 ft | 407 kts | 317° |
| 2026-05-07 14:07 | 32.66467 | 119.40205 | 32082 ft | 407 kts | 317° |
| 2026-05-07 14:07 | 32.71044 | 119.36233 | 32087 ft | 407 kts | 317° |
| 2026-05-07 14:08 | 32.75600 | 119.32274 | 32088 ft | 407 kts | 317° |
| 2026-05-07 14:08 | 32.80150 | 119.28317 | 32095 ft | 407 kts | 317° |
| 2026-05-07 14:09 | 32.84719 | 119.24337 | 32101 ft | 407 kts | 317° |
| 2026-05-07 14:09 | 32.89280 | 119.20361 | 32102 ft | 405 kts | 317° |
| 2026-05-07 14:10 | 32.93837 | 119.16382 | 32109 ft | 405 kts | 317° |
| 2026-05-07 14:10 | 32.98382 | 119.12451 | 32115 ft | 406 kts | 318° |
| 2026-05-07 14:11 | 33.02962 | 119.08512 | 32115 ft | 405 kts | 318° |
| 2026-05-07 14:11 | 33.07519 | 119.04588 | 32116 ft | 405 kts | 318° |
| 2026-05-07 14:12 | 33.12093 | 119.00640 | 32123 ft | 405 kts | 318° |
| 2026-05-07 14:12 | 33.16670 | 118.96683 | 32138 ft | 405 kts | 317° |
| 2026-05-07 14:13 | 33.21198 | 118.92761 | 32126 ft | 401 kts | 317° |
| 2026-05-07 14:13 | 33.25691 | 118.88841 | 32134 ft | 400 kts | 317° |
| 2026-05-07 14:14 | 33.30202 | 118.84896 | 32139 ft | 400 kts | 317° |
| 2026-05-07 14:14 | 33.34706 | 118.80986 | 32138 ft | 401 kts | 317° |
| 2026-05-07 14:15 | 33.39221 | 118.77077 | 32143 ft | 401 kts | 317° |
| 2026-05-07 14:15 | 33.43704 | 118.73190 | 32142 ft | 400 kts | 317° |
| 2026-05-07 14:16 | 33.48212 | 118.69279 | 32142 ft | 399 kts | 317° |
| 2026-05-07 14:16 | 33.52706 | 118.65383 | 32145 ft | 398 kts | 317° |
| 2026-05-07 14:17 | 33.57175 | 118.61507 | 32138 ft | 396 kts | 317° |
| 2026-05-07 14:17 | 33.61630 | 118.57638 | 32138 ft | 395 kts | 317° |
| 2026-05-07 14:18 | 33.66076 | 118.53770 | 32150 ft | 395 kts | 317° |
| 2026-05-07 14:18 | 33.70525 | 118.49895 | 32144 ft | 395 kts | 317° |
| 2026-05-07 14:19 | 33.74973 | 118.46015 | 32168 ft | 395 kts | 317° |
| 2026-05-07 14:19 | 33.79410 | 118.42141 | 32142 ft | 393 kts | 317° |
| 2026-05-07 14:20 | 33.83836 | 118.38271 | 32137 ft | 393 kts | 317° |
| 2026-05-07 14:20 | 33.88262 | 118.34394 | 32134 ft | 394 kts | 317° |
| 2026-05-07 14:21 | 33.92707 | 118.30494 | 32131 ft | 395 kts | 317° |
| 2026-05-07 14:21 | 33.97148 | 118.26598 | 32128 ft | 395 kts | 317° |
| 2026-05-07 14:22 | 34.01577 | 118.22736 | 32126 ft | 395 kts | 317° |
| 2026-05-07 14:22 | 34.05316 | 118.19481 | 32152 ft | 395 kts | 316° |
| 2026-05-07 14:23 | 34.10508 | 118.15093 | 32126 ft | 391 kts | 318° |
| 2026-05-07 14:23 | 34.14892 | 118.11257 | 32125 ft | 389 kts | 316° |
| 2026-05-07 14:24 | 34.19242 | 118.07384 | 32123 ft | 389 kts | 316° |
| 2026-05-07 14:24 | 34.23619 | 118.03528 | 32125 ft | 389 kts | 316° |
| 2026-05-07 14:25 | 34.28229 | 118.00022 | 32126 ft | 399 kts | 326° |
| 2026-05-07 14:25 | 34.33537 | 117.97736 | 32149 ft | 408 kts | 333° |
| 2026-05-07 14:26 | 34.38963 | 117.95797 | 32123 ft | 406 kts | 334° |
| 2026-05-07 14:26 | 34.44388 | 117.93910 | 32124 ft | 405 kts | 334° |
| 2026-05-07 14:27 | 34.49800 | 117.91998 | 32122 ft | 405 kts | 334° |
| 2026-05-07 14:27 | 34.55169 | 117.90080 | 32121 ft | 405 kts | 334° |
| 2026-05-07 14:28 | 34.60570 | 117.88143 | 32130 ft | 404 kts | 333° |
| 2026-05-07 14:28 | 34.65950 | 117.86212 | 32122 ft | 403 kts | 333° |
| 2026-05-07 14:29 | 34.71334 | 117.84274 | 32123 ft | 402 kts | 333° |
| 2026-05-07 14:29 | 34.76710 | 117.82337 | 32129 ft | 402 kts | 333° |
| 2026-05-07 14:30 | 34.82075 | 117.80401 | 32128 ft | 403 kts | 333° |
| 2026-05-07 14:30 | 34.87463 | 117.78530 | 32132 ft | 403 kts | 334° |
| 2026-05-07 14:31 | 34.92811 | 117.76646 | 32124 ft | 398 kts | 332° |
| 2026-05-07 14:31 | 34.98095 | 117.74629 | 32131 ft | 398 kts | 332° |
| 2026-05-07 14:32 | 35.03380 | 117.72626 | 32135 ft | 398 kts | 332° |
| 2026-05-07 14:32 | 35.08678 | 117.70661 | 32175 ft | 399 kts | 332° |
| 2026-05-07 14:33 | 35.13950 | 117.68728 | 32139 ft | 397 kts | 332° |
| 2026-05-07 14:33 | 35.18378 | 117.67105 | 32144 ft | 397 kts | 332° |
| 2026-05-07 14:34 | 35.23667 | 117.65171 | 32151 ft | 397 kts | 332° |
| 2026-05-07 14:34 | 35.28951 | 117.63226 | 32146 ft | 396 kts | 332° |
| 2026-05-07 14:35 | 35.34232 | 117.61272 | 32186 ft | 396 kts | 331° |
| 2026-05-07 14:35 | 35.39493 | 117.59329 | 32154 ft | 394 kts | 332° |
| 2026-05-07 14:36 | 35.44745 | 117.57394 | 32156 ft | 393 kts | 331° |
| 2026-05-07 14:36 | 35.49979 | 117.55454 | 32152 ft | 393 kts | 331° |
| 2026-05-07 14:37 | 35.55219 | 117.53509 | 32156 ft | 393 kts | 331° |
| 2026-05-07 14:37 | 35.63043 | 117.50604 | 32158 ft | 393 kts | 331° |
| 2026-05-07 14:38 | 35.68280 | 117.48656 | 32159 ft | 393 kts | 331° |
| 2026-05-07 14:38 | 35.73517 | 117.46705 | 32166 ft | 393 kts | 331° |
| 2026-05-07 14:39 | 35.78739 | 117.44761 | 32165 ft | 392 kts | 331° |
| 2026-05-07 14:39 | 35.83959 | 117.42812 | 32187 ft | 391 kts | 331° |
| 2026-05-07 14:40 | 35.89159 | 117.40870 | 32166 ft | 390 kts | 330° |
| 2026-05-07 14:40 | 35.94360 | 117.38922 | 32168 ft | 390 kts | 330° |
| 2026-05-07 14:41 | 35.99529 | 117.36983 | 32169 ft | 390 kts | 331° |
| 2026-05-07 14:41 | 36.04734 | 117.35047 | 32176 ft | 390 kts | 331° |
| 2026-05-07 14:42 | 36.09913 | 117.33143 | 32174 ft | 389 kts | 331° |
| 2026-05-07 14:42 | 36.15091 | 117.31243 | 32182 ft | 387 kts | 330° |
| 2026-05-07 14:43 | 36.20249 | 117.29325 | 32174 ft | 386 kts | 330° |
| 2026-05-07 14:43 | 36.25377 | 117.27416 | 32184 ft | 386 kts | 330° |
| 2026-05-07 14:44 | 36.30539 | 117.25495 | 32183 ft | 386 kts | 330° |
| 2026-05-07 14:44 | 36.35717 | 117.23673 | 32191 ft | 386 kts | 332° |
| 2026-05-07 14:45 | 36.40839 | 117.21893 | 32183 ft | 379 kts | 328° |
| 2026-05-07 14:45 | 36.45642 | 117.19451 | 32186 ft | 371 kts | 324° |
| 2026-05-07 14:46 | 36.50391 | 117.16895 | 32196 ft | 373 kts | 324° |
| 2026-05-07 14:46 | 36.55160 | 117.14372 | 32191 ft | 373 kts | 324° |
| 2026-05-07 14:47 | 36.59933 | 117.11887 | 32191 ft | 372 kts | 324° |
| 2026-05-07 14:47 | 36.64702 | 117.09404 | 32202 ft | 371 kts | 324° |
| 2026-05-07 14:48 | 36.69463 | 117.06912 | 32199 ft | 371 kts | 324° |
| 2026-05-07 14:48 | 36.74223 | 117.04417 | 32206 ft | 371 kts | 324° |
| 2026-05-07 14:49 | 36.78983 | 117.01924 | 32201 ft | 371 kts | 324° |
| 2026-05-07 14:49 | 36.83736 | 116.99432 | 32206 ft | 371 kts | 323° |
| 2026-05-07 14:50 | 36.88497 | 116.96933 | 32204 ft | 371 kts | 323° |
| 2026-05-07 14:50 | 36.93231 | 116.94445 | 32207 ft | 371 kts | 323° |
| 2026-05-07 14:51 | 36.97983 | 116.91943 | 32208 ft | 370 kts | 323° |
| 2026-05-07 14:51 | 37.02729 | 116.89442 | 32208 ft | 370 kts | 323° |
| 2026-05-07 14:52 | 37.07482 | 116.86934 | 32238 ft | 370 kts | 323° |
| 2026-05-07 14:52 | 37.12197 | 116.84450 | 32205 ft | 367 kts | 323° |
| 2026-05-07 14:53 | 37.16892 | 116.81963 | 32206 ft | 366 kts | 323° |
| 2026-05-07 14:53 | 37.21618 | 116.79535 | 32216 ft | 373 kts | 327° |
| 2026-05-07 14:54 | 37.26580 | 116.77546 | 32206 ft | 375 kts | 328° |
| 2026-05-07 14:54 | 37.31587 | 116.75653 | 32252 ft | 376 kts | 328° |
| 2026-05-07 14:55 | 37.36585 | 116.73788 | 32215 ft | 374 kts | 328° |
| 2026-05-07 14:55 | 37.41564 | 116.71913 | 32221 ft | 373 kts | 328° |
| 2026-05-07 14:56 | 37.46529 | 116.70030 | 32218 ft | 373 kts | 328° |
| 2026-05-07 14:56 | 37.51496 | 116.68142 | 32215 ft | 373 kts | 328° |
| 2026-05-07 14:57 | 37.56462 | 116.66254 | 32223 ft | 372 kts | 328° |
| 2026-05-07 14:57 | 37.61385 | 116.64382 | 32216 ft | 372 kts | 328° |
| 2026-05-07 14:58 | 37.66336 | 116.62495 | 32219 ft | 372 kts | 328° |
| 2026-05-07 14:58 | 37.71327 | 116.60577 | 32221 ft | 382 kts | 328° |
| 2026-05-07 14:59 | 37.76522 | 116.58562 | 32220 ft | 398 kts | 329° |
| 2026-05-07 14:59 | 37.81929 | 116.56502 | 32230 ft | 414 kts | 332° |
| 2026-05-07 15:00 | 37.87461 | 116.54450 | 32219 ft | 412 kts | 330° |
| 2026-05-07 15:00 | 37.92830 | 116.52365 | 31916 ft | 392 kts | 331° |
| 2026-05-07 15:01 | 37.95386 | 116.51359 | 31536 ft | 377 kts | 328° |
| 2026-05-07 15:01 | 37.97727 | 116.50035 | 31020 ft | 360 kts | 320° |
| 2026-05-07 15:01 | 37.99814 | 116.48388 | 30579 ft | 348 kts | 316° |
| 2026-05-07 15:01 | 38.01793 | 116.46675 | 30161 ft | 341 kts | 315° |
| 2026-05-07 15:02 | 38.03705 | 116.44949 | 29690 ft | 334 kts | 314° |
| 2026-05-07 15:02 | 38.05565 | 116.43235 | 29284 ft | 327 kts | 314° |
| 2026-05-07 15:02 | 38.07386 | 116.41544 | 28870 ft | 322 kts | 314° |
| 2026-05-07 15:02 | 38.09179 | 116.39878 | 28494 ft | 317 kts | 314° |
| 2026-05-07 15:03 | 38.10955 | 116.38228 | 28129 ft | 317 kts | 314° |
| 2026-05-07 15:03 | 38.12735 | 116.36576 | 27756 ft | 317 kts | 314° |
| 2026-05-07 15:03 | 38.14515 | 116.34931 | 27376 ft | 316 kts | 315° |
| 2026-05-07 15:03 | 38.16267 | 116.33316 | 26998 ft | 315 kts | 315° |
| 2026-05-07 15:04 | 38.18038 | 116.31686 | 26613 ft | 314 kts | 315° |
| 2026-05-07 15:04 | 38.19804 | 116.30061 | 26246 ft | 313 kts | 315° |
| 2026-05-07 15:04 | 38.21564 | 116.28442 | 25861 ft | 312 kts | 315° |
| 2026-05-07 15:04 | 38.23406 | 116.26948 | 25491 ft | 318 kts | 323° |
| 2026-05-07 15:05 | 38.25497 | 116.25892 | 25101 ft | 330 kts | 334° |
| 2026-05-07 15:05 | 38.27818 | 116.25482 | 24708 ft | 345 kts | 349° |
| 2026-05-07 15:05 | 38.30250 | 116.25869 | 24288 ft | 358 kts | 4° |
| 2026-05-07 15:05 | 38.32674 | 116.26683 | 23827 ft | 359 kts | 5° |
| 2026-05-07 15:06 | 38.35078 | 116.27550 | 23321 ft | 360 kts | 6° |
| 2026-05-07 15:06 | 38.37480 | 116.28400 | 22866 ft | 355 kts | 6° |
| 2026-05-07 15:06 | 38.39848 | 116.29213 | 22429 ft | 351 kts | 6° |
| 2026-05-07 15:06 | 38.42210 | 116.30021 | 22000 ft | 348 kts | 6° |
| 2026-05-07 15:07 | 38.44540 | 116.30820 | 21570 ft | 345 kts | 7° |
| 2026-05-07 15:07 | 38.46845 | 116.31612 | 21144 ft | 342 kts | 7° |
| 2026-05-07 15:07 | 38.49138 | 116.32411 | 20729 ft | 339 kts | 8° |
| 2026-05-07 15:07 | 38.51405 | 116.33209 | 20302 ft | 336 kts | 9° |
| 2026-05-07 15:08 | 38.53646 | 116.33986 | 19894 ft | 333 kts | 8° |
| 2026-05-07 15:08 | 38.55877 | 116.34746 | 19480 ft | 330 kts | 9° |
| 2026-05-07 15:08 | 38.58080 | 116.35499 | 19064 ft | 327 kts | 9° |
| 2026-05-07 15:08 | 38.60271 | 116.36251 | 18654 ft | 325 kts | 9° |
| 2026-05-07 15:09 | 38.62441 | 116.37000 | 18245 ft | 322 kts | 9° |
| 2026-05-07 15:09 | 38.64591 | 116.37728 | 17826 ft | 317 kts | 8° |
| 2026-05-07 15:09 | 38.66727 | 116.38359 | 17613 ft | 316 kts | 7° |
| 2026-05-07 15:09 | 38.68873 | 116.38962 | 17466 ft | 322 kts | 7° |
| 2026-05-07 15:10 | 38.71065 | 116.39578 | 17272 ft | 322 kts | 7° |
| 2026-05-07 15:10 | 38.73253 | 116.40196 | 17083 ft | 321 kts | 7° |
| 2026-05-07 15:10 | 38.75433 | 116.40812 | 16896 ft | 320 kts | 7° |
| 2026-05-07 15:10 | 38.77602 | 116.41425 | 16705 ft | 319 kts | 7° |
| 2026-05-07 15:11 | 38.79768 | 116.42037 | 16520 ft | 318 kts | 7° |
| 2026-05-07 15:11 | 38.81927 | 116.42648 | 16335 ft | 317 kts | 7° |
| 2026-05-07 15:11 | 38.84080 | 116.43257 | 16149 ft | 316 kts | 7° |
| 2026-05-07 15:11 | 38.86226 | 116.43866 | 15966 ft | 315 kts | 7° |
| 2026-05-07 15:12 | 38.88364 | 116.44473 | 15781 ft | 314 kts | 8° |
| 2026-05-07 15:12 | 38.90499 | 116.45079 | 15585 ft | 313 kts | 8° |
| 2026-05-07 15:12 | 38.92621 | 116.45682 | 15408 ft | 312 kts | 8° |
| 2026-05-07 15:12 | 38.94734 | 116.46283 | 15230 ft | 311 kts | 8° |
| 2026-05-07 15:13 | 38.96850 | 116.46885 | 15044 ft | 310 kts | 8° |
| 2026-05-07 15:13 | 38.98954 | 116.47483 | 14864 ft | 309 kts | 8° |
| 2026-05-07 15:13 | 39.01057 | 116.48082 | 14674 ft | 308 kts | 8° |
| 2026-05-07 15:13 | 39.03145 | 116.48677 | 14503 ft | 307 kts | 8° |
| 2026-05-07 15:14 | 39.05231 | 116.49271 | 14322 ft | 307 kts | 8° |
| 2026-05-07 15:14 | 39.07312 | 116.49865 | 14144 ft | 306 kts | 8° |
| 2026-05-07 15:14 | 39.09385 | 116.50456 | 13965 ft | 305 kts | 8° |
| 2026-05-07 15:14 | 39.11469 | 116.50841 | 13769 ft | 301 kts | 358° |
| 2026-05-07 15:15 | 39.13514 | 116.50688 | 13439 ft | 297 kts | 351° |
| 2026-05-07 15:15 | 39.15559 | 116.50372 | 13159 ft | 295 kts | 351° |
| 2026-05-07 15:15 | 39.17595 | 116.50042 | 12891 ft | 294 kts | 351° |
| 2026-05-07 15:15 | 39.19622 | 116.49716 | 12641 ft | 293 kts | 351° |
| 2026-05-07 15:16 | 39.21642 | 116.49396 | 12376 ft | 292 kts | 351° |
| 2026-05-07 15:16 | 39.23651 | 116.49080 | 12118 ft | 290 kts | 351° |
| 2026-05-07 15:16 | 39.25651 | 116.48767 | 11864 ft | 289 kts | 351° |
| 2026-05-07 15:16 | 39.27644 | 116.48456 | 11610 ft | 289 kts | 351° |
| 2026-05-07 15:17 | 39.29638 | 116.48145 | 11357 ft | 288 kts | 351° |
| 2026-05-07 15:17 | 39.31581 | 116.47843 | 11180 ft | 275 kts | 351° |
| 2026-05-07 15:17 | 39.33447 | 116.47555 | 10938 ft | 265 kts | 351° |
| 2026-05-07 15:17 | 39.35255 | 116.47272 | 10707 ft | 261 kts | 351° |
| 2026-05-07 15:18 | 39.37054 | 116.46988 | 10475 ft | 260 kts | 351° |
| 2026-05-07 15:18 | 39.38851 | 116.46707 | 10256 ft | 260 kts | 352° |
| 2026-05-07 15:18 | 39.40643 | 116.46428 | 9958 ft | 259 kts | 352° |
| 2026-05-07 15:18 | 39.42428 | 116.46149 | 9663 ft | 258 kts | 352° |
| 2026-05-07 15:19 | 39.44210 | 116.45870 | 9368 ft | 258 kts | 352° |
| 2026-05-07 15:19 | 39.45995 | 116.45619 | 9131 ft | 259 kts | 355° |
| 2026-05-07 15:19 | 39.47791 | 116.45837 | 8881 ft | 263 kts | 13° |
| 2026-05-07 15:19 | 39.49444 | 116.46921 | 8661 ft | 271 kts | 32° |
| 2026-05-07 15:20 | 39.50938 | 116.48429 | 8416 ft | 273 kts | 36° |
| 2026-05-07 15:20 | 39.52395 | 116.49993 | 8170 ft | 272 kts | 36° |
| 2026-05-07 15:20 | 39.53360 | 116.51032 | 8014 ft | 272 kts | 36° |
| 2026-05-07 15:20 | 39.54819 | 116.52594 | 7767 ft | 272 kts | 36° |
| 2026-05-07 15:21 | 39.56279 | 116.54150 | 7518 ft | 271 kts | 36° |
| 2026-05-07 15:21 | 39.57736 | 116.55702 | 7281 ft | 271 kts | 36° |
| 2026-05-07 15:21 | 39.59189 | 116.57252 | 7059 ft | 271 kts | 36° |
| 2026-05-07 15:21 | 39.60641 | 116.58801 | 6802 ft | 271 kts | 36° |
| 2026-05-07 15:22 | 39.62103 | 116.60354 | 6562 ft | 271 kts | 36° |
| 2026-05-07 15:22 | 39.63558 | 116.61897 | 6317 ft | 271 kts | 36° |
| 2026-05-07 15:22 | 39.65013 | 116.63439 | 6072 ft | 270 kts | 36° |
| 2026-05-07 15:22 | 39.66506 | 116.64901 | 5908 ft | 268 kts | 28° |
| 2026-05-07 15:23 | 39.68230 | 116.65693 | 5482 ft | 262 kts | 4° |
| 2026-05-07 15:23 | 39.70031 | 116.65621 | 5146 ft | 258 kts | 352° |
| 2026-05-07 15:23 | 39.71811 | 116.65342 | 4821 ft | 258 kts | 352° |
| 2026-05-07 15:23 | 39.73581 | 116.65050 | 4517 ft | 253 kts | 351° |
| 2026-05-07 15:24 | 39.75288 | 116.64765 | 4382 ft | 242 kts | 351° |
| 2026-05-07 15:24 | 39.76926 | 116.64512 | 4286 ft | 232 kts | 352° |
| 2026-05-07 15:24 | 39.78495 | 116.64266 | 4161 ft | 223 kts | 351° |
| 2026-05-07 15:24 | 39.80001 | 116.64022 | 4061 ft | 215 kts | 351° |
| 2026-05-07 15:25 | 39.81449 | 116.63793 | 3922 ft | 204 kts | 352° |
| 2026-05-07 15:25 | 39.82843 | 116.63560 | 3532 ft | 200 kts | 350° |
| 2026-05-07 15:25 | 39.84219 | 116.63339 | 3191 ft | 198 kts | 353° |
| 2026-05-07 15:25 | 39.85595 | 116.63138 | 3016 ft | 200 kts | 352° |
| 2026-05-07 15:26 | 39.86980 | 116.62923 | 3008 ft | 200 kts | 352° |
| 2026-05-07 15:26 | 39.88366 | 116.62698 | 3010 ft | 201 kts | 352° |
| 2026-05-07 15:26 | 39.89740 | 116.62480 | 3007 ft | 202 kts | 352° |
| 2026-05-07 15:26 | 39.91147 | 116.62252 | 2964 ft | 199 kts | 352° |
| 2026-05-07 15:27 | 39.92489 | 116.62055 | 2743 ft | 189 kts | 353° |
| 2026-05-07 15:27 | 39.93765 | 116.61871 | 2460 ft | 183 kts | 352° |
| 2026-05-07 15:27 | 39.95009 | 116.61664 | 2220 ft | 177 kts | 352° |
| 2026-05-07 15:27 | 39.96210 | 116.61464 | 1996 ft | 170 kts | 351° |
| 2026-05-07 15:28 | 39.97343 | 116.61295 | 1772 ft | 158 kts | 352° |
| 2026-05-07 15:28 | 39.98383 | 116.61137 | 1555 ft | 142 kts | 351° |
| 2026-05-07 15:28 | 39.99333 | 116.60990 | 1394 ft | 135 kts | 351° |
| 2026-05-07 15:28 | 40.00275 | 116.60835 | 1208 ft | 139 kts | 351° |
| 2026-05-07 15:29 | 40.01228 | 116.60674 | 1003 ft | 138 kts | 352° |
| 2026-05-07 15:29 | 40.02179 | 116.60553 | 829 ft | 136 kts | 352° |
| 2026-05-07 15:29 | 40.03099 | 116.60426 | 673 ft | 132 kts | 349° |
| 2026-05-07 15:29 | 40.04008 | 116.60261 | 478 ft | 132 kts | 351° |
| 2026-05-07 15:30 | 40.04921 | 116.60116 | 315 ft | 132 kts | 349° |
| 2026-05-07 15:30 | 40.05844 | 116.59967 | 155 ft | 133 kts | 350° |
| 2026-05-07 15:30 | 40.06695 | 116.59839 | 137 ft | 112 kts | 350° |
| 2026-05-07 15:30 | 40.07348 | 116.59729 | 127 ft | 72 kts | 353° |
| 2026-05-07 15:31 | 40.07727 | 116.59669 | 126 ft | 44 kts | 353° |
| 2026-05-07 15:31 | 40.07956 | 116.59581 | 126 ft | 30 kts | 328° |
| 2026-05-07 15:31 | 40.08093 | 116.59468 | 125 ft | 16 kts | 318° |
| 2026-05-07 15:31 | 40.08102 | 116.59347 | 129 ft | 14 kts | 261° |
| 2026-05-07 15:32 | 40.08085 | 116.59231 | 128 ft | 10 kts | 248° |
| 2026-05-07 15:32 | 40.08038 | 116.59219 | 128 ft | 11 kts | 179° |
| 2026-05-07 15:32 | 40.07936 | 116.59228 | 128 ft | 19 kts | 171° |
| 2026-05-07 15:32 | 40.07796 | 116.59255 | 127 ft | 20 kts | 172° |
| 2026-05-07 15:33 | 40.07656 | 116.59277 | 127 ft | 20 kts | 173° |
| 2026-05-07 15:33 | 40.07534 | 116.59295 | 126 ft | 13 kts | 174° |
| 2026-05-07 15:33 | 40.07465 | 116.59292 | 126 ft | 5 kts | 229° |
| 2026-05-07 15:33 | 40.07477 | 116.59266 | 124 ft | 6 kts | 318° |
| 2026-05-07 15:34 | 40.07513 | 116.59218 | 127 ft | 8 kts | 314° |
| 2026-05-07 15:34 | 40.07540 | 116.59183 | 126 ft | 2 kts | 315° |
| 2026-05-07 15:34 | 40.07548 | 116.59173 | 125 ft | 0 kts | 316° |